sensor_id;sensor_type;location;lat;lon;timestamp;P1;durP1;ratioP1;P2;durP2;ratioP2
11222;SDS011;5668;52.012;8.724;2023-03-03T00:02:20;21.17;;;15.40;;
11222;SDS011;5668;52.012;8.724;2023-03-03T00:04:47;21.20;;;15.27;;
11222;SDS011;5668;52.012;8.724;2023-03-03T00:07:15;22.07;;;15.43;;
11222;SDS011;5668;52.012;8.724;2023-03-03T00:09:48;21.97;;;15.67;;
11222;SDS011;5668;52.012;8.724;2023-03-03T00:12:18;21.67;;;14.97;;
11222;SDS011;5668;52.012;8.724;2023-03-03T00:14:49;20.63;;;15.30;;
11222;SDS011;5668;52.012;8.724;2023-03-03T00:17:19;19.80;;;15.23;;
11222;SDS011;5668;52.012;8.724;2023-03-03T00:19:49;22.10;;;16.73;;
11222;SDS011;5668;52.012;8.724;2023-03-03T00:22:20;21.23;;;15.40;;
11222;SDS011;5668;52.012;8.724;2023-03-03T00:24:55;22.77;;;15.10;;
11222;SDS011;5668;52.012;8.724;2023-03-03T00:27:27;21.13;;;15.27;;
11222;SDS011;5668;52.012;8.724;2023-03-03T00:29:56;19.37;;;14.37;;
11222;SDS011;5668;52.012;8.724;2023-03-03T00:32:26;17.90;;;13.83;;
11222;SDS011;5668;52.012;8.724;2023-03-03T00:34:59;20.57;;;14.27;;
11222;SDS011;5668;52.012;8.724;2023-03-03T00:37:43;17.67;;;13.03;;
11222;SDS011;5668;52.012;8.724;2023-03-03T00:43:00;18.57;;;13.63;;
11222;SDS011;5668;52.012;8.724;2023-03-03T00:45:41;18.67;;;14.93;;
11222;SDS011;5668;52.012;8.724;2023-03-03T00:48:21;19.03;;;14.10;;
11222;SDS011;5668;52.012;8.724;2023-03-03T00:50:51;18.07;;;13.57;;
11222;SDS011;5668;52.012;8.724;2023-03-03T00:53:19;19.23;;;13.10;;
11222;SDS011;5668;52.012;8.724;2023-03-03T00:55:49;17.80;;;12.43;;
11222;SDS011;5668;52.012;8.724;2023-03-03T00:58:17;19.07;;;13.90;;
11222;SDS011;5668;52.012;8.724;2023-03-03T01:00:46;18.17;;;13.30;;
11222;SDS011;5668;52.012;8.724;2023-03-03T01:03:15;19.60;;;13.57;;
11222;SDS011;5668;52.012;8.724;2023-03-03T01:05:44;18.43;;;13.67;;
11222;SDS011;5668;52.012;8.724;2023-03-03T01:08:12;19.00;;;13.97;;
11222;SDS011;5668;52.012;8.724;2023-03-03T01:10:41;21.43;;;15.60;;
11222;SDS011;5668;52.012;8.724;2023-03-03T01:13:12;21.63;;;15.80;;
11222;SDS011;5668;52.012;8.724;2023-03-03T01:15:43;20.67;;;15.53;;
11222;SDS011;5668;52.012;8.724;2023-03-03T01:18:10;21.30;;;15.00;;
11222;SDS011;5668;52.012;8.724;2023-03-03T01:20:38;20.87;;;15.30;;
11222;SDS011;5668;52.012;8.724;2023-03-03T01:23:06;18.20;;;13.97;;
11222;SDS011;5668;52.012;8.724;2023-03-03T01:25:34;20.53;;;13.60;;
11222;SDS011;5668;52.012;8.724;2023-03-03T01:28:01;20.30;;;14.37;;
11222;SDS011;5668;52.012;8.724;2023-03-03T01:30:30;20.80;;;14.87;;
11222;SDS011;5668;52.012;8.724;2023-03-03T01:32:57;19.33;;;14.57;;
11222;SDS011;5668;52.012;8.724;2023-03-03T01:35:25;18.13;;;14.60;;
11222;SDS011;5668;52.012;8.724;2023-03-03T01:37:53;20.10;;;15.07;;
11222;SDS011;5668;52.012;8.724;2023-03-03T01:40:22;19.93;;;14.77;;
11222;SDS011;5668;52.012;8.724;2023-03-03T01:42:51;20.90;;;15.13;;
11222;SDS011;5668;52.012;8.724;2023-03-03T01:45:19;18.27;;;13.90;;
11222;SDS011;5668;52.012;8.724;2023-03-03T01:47:52;18.53;;;13.97;;
11222;SDS011;5668;52.012;8.724;2023-03-03T01:50:28;19.83;;;14.20;;
11222;SDS011;5668;52.012;8.724;2023-03-03T01:53:04;19.20;;;13.53;;
11222;SDS011;5668;52.012;8.724;2023-03-03T01:55:38;18.27;;;13.77;;
11222;SDS011;5668;52.012;8.724;2023-03-03T01:58:07;18.67;;;13.97;;
11222;SDS011;5668;52.012;8.724;2023-03-03T02:00:38;18.87;;;14.13;;
11222;SDS011;5668;52.012;8.724;2023-03-03T02:03:11;17.10;;;13.40;;
11222;SDS011;5668;52.012;8.724;2023-03-03T02:05:38;17.77;;;13.63;;
11222;SDS011;5668;52.012;8.724;2023-03-03T02:08:07;18.90;;;13.10;;
11222;SDS011;5668;52.012;8.724;2023-03-03T02:10:39;18.33;;;13.73;;
11222;SDS011;5668;52.012;8.724;2023-03-03T02:13:06;20.10;;;13.63;;
11222;SDS011;5668;52.012;8.724;2023-03-03T02:15:33;17.47;;;13.33;;
11222;SDS011;5668;52.012;8.724;2023-03-03T02:18:02;19.10;;;14.10;;
11222;SDS011;5668;52.012;8.724;2023-03-03T02:20:37;17.57;;;13.30;;
11222;SDS011;5668;52.012;8.724;2023-03-03T02:23:12;16.80;;;12.83;;
11222;SDS011;5668;52.012;8.724;2023-03-03T02:25:48;17.93;;;12.77;;
11222;SDS011;5668;52.012;8.724;2023-03-03T02:28:28;19.27;;;13.50;;
11222;SDS011;5668;52.012;8.724;2023-03-03T02:30:59;19.23;;;14.07;;
11222;SDS011;5668;52.012;8.724;2023-03-03T02:33:27;18.27;;;12.93;;
11222;SDS011;5668;52.012;8.724;2023-03-03T02:35:54;16.53;;;12.60;;
11222;SDS011;5668;52.012;8.724;2023-03-03T02:38:23;17.67;;;12.73;;
11222;SDS011;5668;52.012;8.724;2023-03-03T02:41:01;18.90;;;12.47;;
11222;SDS011;5668;52.012;8.724;2023-03-03T02:43:35;17.43;;;13.00;;
11222;SDS011;5668;52.012;8.724;2023-03-03T02:46:10;18.23;;;13.37;;
11222;SDS011;5668;52.012;8.724;2023-03-03T02:48:38;20.07;;;13.90;;
11222;SDS011;5668;52.012;8.724;2023-03-03T02:51:05;18.43;;;14.23;;
11222;SDS011;5668;52.012;8.724;2023-03-03T02:53:32;17.93;;;13.17;;
11222;SDS011;5668;52.012;8.724;2023-03-03T02:56:01;20.20;;;14.03;;
11222;SDS011;5668;52.012;8.724;2023-03-03T02:58:28;21.00;;;14.33;;
11222;SDS011;5668;52.012;8.724;2023-03-03T03:00:56;19.23;;;13.70;;
11222;SDS011;5668;52.012;8.724;2023-03-03T03:03:23;19.93;;;14.67;;
11222;SDS011;5668;52.012;8.724;2023-03-03T03:05:50;19.80;;;14.50;;
11222;SDS011;5668;52.012;8.724;2023-03-03T03:08:18;20.03;;;13.77;;
11222;SDS011;5668;52.012;8.724;2023-03-03T03:10:45;19.60;;;13.97;;
11222;SDS011;5668;52.012;8.724;2023-03-03T03:13:14;21.47;;;14.73;;
11222;SDS011;5668;52.012;8.724;2023-03-03T03:15:43;20.00;;;14.97;;
11222;SDS011;5668;52.012;8.724;2023-03-03T03:18:11;21.07;;;15.73;;
11222;SDS011;5668;52.012;8.724;2023-03-03T03:20:38;22.17;;;14.80;;
11222;SDS011;5668;52.012;8.724;2023-03-03T03:23:06;22.17;;;14.70;;
11222;SDS011;5668;52.012;8.724;2023-03-03T03:25:34;23.27;;;15.10;;
11222;SDS011;5668;52.012;8.724;2023-03-03T03:28:06;20.23;;;14.03;;
11222;SDS011;5668;52.012;8.724;2023-03-03T03:30:35;19.93;;;14.00;;
11222;SDS011;5668;52.012;8.724;2023-03-03T03:33:03;20.90;;;13.93;;
11222;SDS011;5668;52.012;8.724;2023-03-03T03:35:31;20.27;;;14.87;;
11222;SDS011;5668;52.012;8.724;2023-03-03T03:37:58;21.53;;;13.77;;
11222;SDS011;5668;52.012;8.724;2023-03-03T03:40:26;21.80;;;14.33;;
11222;SDS011;5668;52.012;8.724;2023-03-03T03:42:53;21.87;;;14.50;;
11222;SDS011;5668;52.012;8.724;2023-03-03T03:45:21;21.10;;;13.70;;
11222;SDS011;5668;52.012;8.724;2023-03-03T03:47:49;20.70;;;14.03;;
11222;SDS011;5668;52.012;8.724;2023-03-03T03:50:17;20.63;;;13.00;;
11222;SDS011;5668;52.012;8.724;2023-03-03T03:52:45;21.47;;;13.80;;
11222;SDS011;5668;52.012;8.724;2023-03-03T03:55:12;23.00;;;13.83;;
11222;SDS011;5668;52.012;8.724;2023-03-03T03:57:40;24.47;;;13.50;;
11222;SDS011;5668;52.012;8.724;2023-03-03T04:00:08;23.70;;;14.73;;
11222;SDS011;5668;52.012;8.724;2023-03-03T04:02:36;24.10;;;14.83;;
11222;SDS011;5668;52.012;8.724;2023-03-03T04:05:05;25.13;;;15.60;;
11222;SDS011;5668;52.012;8.724;2023-03-03T04:07:33;32.67;;;17.00;;
11222;SDS011;5668;52.012;8.724;2023-03-03T04:10:00;30.90;;;16.80;;
11222;SDS011;5668;52.012;8.724;2023-03-03T04:12:28;31.07;;;17.60;;
11222;SDS011;5668;52.012;8.724;2023-03-03T04:14:59;33.80;;;18.00;;
11222;SDS011;5668;52.012;8.724;2023-03-03T04:17:27;36.83;;;18.80;;
11222;SDS011;5668;52.012;8.724;2023-03-03T04:19:54;30.43;;;17.40;;
11222;SDS011;5668;52.012;8.724;2023-03-03T04:22:23;35.57;;;18.10;;
11222;SDS011;5668;52.012;8.724;2023-03-03T04:24:50;34.63;;;17.80;;
11222;SDS011;5668;52.012;8.724;2023-03-03T04:27:17;36.77;;;18.03;;
11222;SDS011;5668;52.012;8.724;2023-03-03T04:29:44;35.17;;;17.73;;
11222;SDS011;5668;52.012;8.724;2023-03-03T04:32:12;38.33;;;18.83;;
11222;SDS011;5668;52.012;8.724;2023-03-03T04:34:39;36.03;;;18.53;;
11222;SDS011;5668;52.012;8.724;2023-03-03T04:37:06;34.00;;;17.07;;
11222;SDS011;5668;52.012;8.724;2023-03-03T04:39:35;32.00;;;16.77;;
11222;SDS011;5668;52.012;8.724;2023-03-03T04:42:02;33.53;;;16.07;;
11222;SDS011;5668;52.012;8.724;2023-03-03T04:44:30;34.23;;;15.97;;
11222;SDS011;5668;52.012;8.724;2023-03-03T04:46:57;34.10;;;16.33;;
11222;SDS011;5668;52.012;8.724;2023-03-03T04:49:24;35.90;;;17.67;;
11222;SDS011;5668;52.012;8.724;2023-03-03T04:51:51;36.77;;;18.27;;
11222;SDS011;5668;52.012;8.724;2023-03-03T04:54:19;35.90;;;17.20;;
11222;SDS011;5668;52.012;8.724;2023-03-03T04:56:47;33.07;;;16.80;;
11222;SDS011;5668;52.012;8.724;2023-03-03T04:59:15;34.50;;;17.33;;
11222;SDS011;5668;52.012;8.724;2023-03-03T05:01:42;35.63;;;17.53;;
11222;SDS011;5668;52.012;8.724;2023-03-03T05:04:10;29.80;;;15.63;;
11222;SDS011;5668;52.012;8.724;2023-03-03T05:06:37;29.77;;;15.33;;
11222;SDS011;5668;52.012;8.724;2023-03-03T05:09:05;25.13;;;14.20;;
11222;SDS011;5668;52.012;8.724;2023-03-03T05:11:32;29.70;;;15.57;;
11222;SDS011;5668;52.012;8.724;2023-03-03T05:14:00;36.17;;;17.53;;
11222;SDS011;5668;52.012;8.724;2023-03-03T05:16:28;35.40;;;17.93;;
11222;SDS011;5668;52.012;8.724;2023-03-03T05:18:55;35.43;;;17.03;;
11222;SDS011;5668;52.012;8.724;2023-03-03T05:21:22;38.47;;;17.87;;
11222;SDS011;5668;52.012;8.724;2023-03-03T05:23:49;41.20;;;18.57;;
11222;SDS011;5668;52.012;8.724;2023-03-03T05:26:17;43.00;;;21.00;;
11222;SDS011;5668;52.012;8.724;2023-03-03T05:28:44;39.50;;;18.63;;
11222;SDS011;5668;52.012;8.724;2023-03-03T05:31:12;42.70;;;20.00;;
11222;SDS011;5668;52.012;8.724;2023-03-03T05:33:40;40.40;;;19.13;;
11222;SDS011;5668;52.012;8.724;2023-03-03T05:36:07;36.03;;;17.87;;
11222;SDS011;5668;52.012;8.724;2023-03-03T05:38:34;38.70;;;18.10;;
11222;SDS011;5668;52.012;8.724;2023-03-03T05:41:02;39.97;;;18.70;;
11222;SDS011;5668;52.012;8.724;2023-03-03T05:43:29;36.33;;;17.93;;
11222;SDS011;5668;52.012;8.724;2023-03-03T05:45:56;35.93;;;18.10;;
11222;SDS011;5668;52.012;8.724;2023-03-03T05:48:26;38.90;;;17.50;;
11222;SDS011;5668;52.012;8.724;2023-03-03T05:50:53;37.30;;;17.83;;
11222;SDS011;5668;52.012;8.724;2023-03-03T05:53:22;32.73;;;16.80;;
11222;SDS011;5668;52.012;8.724;2023-03-03T05:55:50;35.00;;;16.83;;
11222;SDS011;5668;52.012;8.724;2023-03-03T05:58:17;31.20;;;16.33;;
11222;SDS011;5668;52.012;8.724;2023-03-03T06:00:44;34.20;;;16.67;;
11222;SDS011;5668;52.012;8.724;2023-03-03T06:03:12;32.83;;;15.70;;
11222;SDS011;5668;52.012;8.724;2023-03-03T06:05:41;27.73;;;15.00;;
11222;SDS011;5668;52.012;8.724;2023-03-03T06:08:08;23.90;;;13.13;;
11222;SDS011;5668;52.012;8.724;2023-03-03T06:10:35;25.43;;;14.10;;
11222;SDS011;5668;52.012;8.724;2023-03-03T06:13:02;24.10;;;13.00;;
11222;SDS011;5668;52.012;8.724;2023-03-03T06:15:29;26.17;;;13.37;;
11222;SDS011;5668;52.012;8.724;2023-03-03T06:17:57;26.43;;;13.57;;
11222;SDS011;5668;52.012;8.724;2023-03-03T06:20:24;24.73;;;13.43;;
11222;SDS011;5668;52.012;8.724;2023-03-03T06:22:52;29.10;;;14.30;;
11222;SDS011;5668;52.012;8.724;2023-03-03T06:25:20;26.73;;;14.30;;
11222;SDS011;5668;52.012;8.724;2023-03-03T06:27:47;27.63;;;14.47;;
11222;SDS011;5668;52.012;8.724;2023-03-03T06:30:14;24.17;;;12.83;;
11222;SDS011;5668;52.012;8.724;2023-03-03T06:32:43;24.47;;;14.27;;
11222;SDS011;5668;52.012;8.724;2023-03-03T06:35:10;26.83;;;13.83;;
11222;SDS011;5668;52.012;8.724;2023-03-03T06:37:37;21.47;;;12.80;;
11222;SDS011;5668;52.012;8.724;2023-03-03T06:40:07;25.97;;;13.60;;
11222;SDS011;5668;52.012;8.724;2023-03-03T06:42:36;26.73;;;13.83;;
11222;SDS011;5668;52.012;8.724;2023-03-03T06:45:04;24.97;;;13.67;;
11222;SDS011;5668;52.012;8.724;2023-03-03T06:47:31;28.07;;;14.47;;
11222;SDS011;5668;52.012;8.724;2023-03-03T06:49:59;25.17;;;14.73;;
11222;SDS011;5668;52.012;8.724;2023-03-03T06:52:26;22.57;;;13.33;;
11222;SDS011;5668;52.012;8.724;2023-03-03T06:54:54;26.30;;;14.30;;
11222;SDS011;5668;52.012;8.724;2023-03-03T06:57:26;23.73;;;12.93;;
11222;SDS011;5668;52.012;8.724;2023-03-03T06:59:54;25.03;;;13.97;;
11222;SDS011;5668;52.012;8.724;2023-03-03T07:02:39;24.97;;;13.43;;
11222;SDS011;5668;52.012;8.724;2023-03-03T07:05:08;25.10;;;14.27;;
11222;SDS011;5668;52.012;8.724;2023-03-03T07:07:39;25.27;;;14.30;;
11222;SDS011;5668;52.012;8.724;2023-03-03T07:10:12;25.93;;;13.60;;
11222;SDS011;5668;52.012;8.724;2023-03-03T07:12:48;26.67;;;14.00;;
11222;SDS011;5668;52.012;8.724;2023-03-03T07:15:15;25.93;;;13.13;;
11222;SDS011;5668;52.012;8.724;2023-03-03T07:17:46;26.70;;;13.93;;
11222;SDS011;5668;52.012;8.724;2023-03-03T07:20:17;23.70;;;13.20;;
11222;SDS011;5668;52.012;8.724;2023-03-03T07:22:47;22.23;;;12.97;;
11222;SDS011;5668;52.012;8.724;2023-03-03T07:25:19;22.93;;;12.50;;
11222;SDS011;5668;52.012;8.724;2023-03-03T07:27:54;20.50;;;11.93;;
11222;SDS011;5668;52.012;8.724;2023-03-03T07:30:26;19.87;;;10.90;;
11222;SDS011;5668;52.012;8.724;2023-03-03T07:32:55;20.03;;;10.80;;
11222;SDS011;5668;52.012;8.724;2023-03-03T07:35:28;19.43;;;11.33;;
11222;SDS011;5668;52.012;8.724;2023-03-03T07:38:02;20.70;;;10.70;;
11222;SDS011;5668;52.012;8.724;2023-03-03T07:40:44;18.57;;;10.43;;
11222;SDS011;5668;52.012;8.724;2023-03-03T07:43:33;18.77;;;10.70;;
11222;SDS011;5668;52.012;8.724;2023-03-03T07:46:02;17.57;;;9.63;;
11222;SDS011;5668;52.012;8.724;2023-03-03T07:48:52;19.00;;;10.47;;
11222;SDS011;5668;52.012;8.724;2023-03-03T07:51:22;18.70;;;9.83;;
11222;SDS011;5668;52.012;8.724;2023-03-03T07:53:52;18.57;;;9.57;;
11222;SDS011;5668;52.012;8.724;2023-03-03T07:56:21;16.83;;;9.07;;
11222;SDS011;5668;52.012;8.724;2023-03-03T07:58:56;16.63;;;9.67;;
11222;SDS011;5668;52.012;8.724;2023-03-03T08:01:30;18.37;;;9.50;;
11222;SDS011;5668;52.012;8.724;2023-03-03T08:04:08;17.80;;;9.77;;
11222;SDS011;5668;52.012;8.724;2023-03-03T08:06:41;18.37;;;9.90;;
11222;SDS011;5668;52.012;8.724;2023-03-03T08:09:30;20.47;;;10.43;;
11222;SDS011;5668;52.012;8.724;2023-03-03T08:12:20;16.77;;;9.77;;
11222;SDS011;5668;52.012;8.724;2023-03-03T08:14:55;18.63;;;10.87;;
11222;SDS011;5668;52.012;8.724;2023-03-03T08:17:38;19.80;;;10.87;;
11222;SDS011;5668;52.012;8.724;2023-03-03T08:20:10;15.10;;;9.50;;
11222;SDS011;5668;52.012;8.724;2023-03-03T08:23:06;15.93;;;9.13;;
11222;SDS011;5668;52.012;8.724;2023-03-03T08:25:34;16.47;;;9.20;;
11222;SDS011;5668;52.012;8.724;2023-03-03T08:28:01;15.53;;;9.13;;
11222;SDS011;5668;52.012;8.724;2023-03-03T08:30:29;16.07;;;9.67;;
11222;SDS011;5668;52.012;8.724;2023-03-03T08:32:57;16.37;;;8.87;;
11222;SDS011;5668;52.012;8.724;2023-03-03T08:35:25;15.93;;;8.87;;
11222;SDS011;5668;52.012;8.724;2023-03-03T08:37:52;17.83;;;9.73;;
11222;SDS011;5668;52.012;8.724;2023-03-03T08:40:20;16.50;;;9.40;;
11222;SDS011;5668;52.012;8.724;2023-03-03T08:42:47;15.73;;;9.07;;
11222;SDS011;5668;52.012;8.724;2023-03-03T08:45:15;16.00;;;9.47;;
11222;SDS011;5668;52.012;8.724;2023-03-03T08:47:43;14.70;;;9.30;;
11222;SDS011;5668;52.012;8.724;2023-03-03T08:50:11;15.93;;;8.90;;
11222;SDS011;5668;52.012;8.724;2023-03-03T08:52:39;15.37;;;8.50;;
11222;SDS011;5668;52.012;8.724;2023-03-03T08:55:07;15.57;;;9.03;;
11222;SDS011;5668;52.012;8.724;2023-03-03T08:57:34;17.13;;;9.23;;
11222;SDS011;5668;52.012;8.724;2023-03-03T09:00:03;17.37;;;10.00;;
11222;SDS011;5668;52.012;8.724;2023-03-03T09:02:31;14.93;;;9.60;;
11222;SDS011;5668;52.012;8.724;2023-03-03T09:05:00;16.70;;;9.47;;
11222;SDS011;5668;52.012;8.724;2023-03-03T09:07:27;17.60;;;10.07;;
11222;SDS011;5668;52.012;8.724;2023-03-03T09:09:55;16.13;;;9.37;;
11222;SDS011;5668;52.012;8.724;2023-03-03T09:12:24;16.67;;;9.73;;
11222;SDS011;5668;52.012;8.724;2023-03-03T09:14:55;16.47;;;9.77;;
11222;SDS011;5668;52.012;8.724;2023-03-03T09:17:27;17.33;;;10.00;;
11222;SDS011;5668;52.012;8.724;2023-03-03T09:19:59;18.80;;;10.10;;
11222;SDS011;5668;52.012;8.724;2023-03-03T09:22:51;18.30;;;10.40;;
11222;SDS011;5668;52.012;8.724;2023-03-03T09:25:20;16.53;;;9.77;;
11222;SDS011;5668;52.012;8.724;2023-03-03T09:27:52;15.97;;;9.40;;
11222;SDS011;5668;52.012;8.724;2023-03-03T09:30:27;18.67;;;10.27;;
11222;SDS011;5668;52.012;8.724;2023-03-03T09:33:16;17.50;;;10.30;;
11222;SDS011;5668;52.012;8.724;2023-03-03T09:35:50;15.30;;;8.73;;
11222;SDS011;5668;52.012;8.724;2023-03-03T09:38:24;17.57;;;9.77;;
11222;SDS011;5668;52.012;8.724;2023-03-03T09:44:16;16.50;;;9.53;;
11222;SDS011;5668;52.012;8.724;2023-03-03T09:47:19;16.60;;;9.43;;
11222;SDS011;5668;52.012;8.724;2023-03-03T09:49:59;13.83;;;9.03;;
11222;SDS011;5668;52.012;8.724;2023-03-03T09:52:39;15.43;;;9.03;;
11222;SDS011;5668;52.012;8.724;2023-03-03T09:55:15;16.90;;;9.50;;
11222;SDS011;5668;52.012;8.724;2023-03-03T09:58:01;18.00;;;10.37;;
11222;SDS011;5668;52.012;8.724;2023-03-03T10:00:42;15.60;;;8.70;;
11222;SDS011;5668;52.012;8.724;2023-03-03T10:03:24;16.87;;;9.80;;
11222;SDS011;5668;52.012;8.724;2023-03-03T10:06:03;15.83;;;8.93;;
11222;SDS011;5668;52.012;8.724;2023-03-03T10:08:45;16.73;;;9.53;;
11222;SDS011;5668;52.012;8.724;2023-03-03T10:11:20;17.10;;;9.73;;
11222;SDS011;5668;52.012;8.724;2023-03-03T10:14:00;15.77;;;9.30;;
11222;SDS011;5668;52.012;8.724;2023-03-03T10:19:38;15.77;;;8.20;;
11222;SDS011;5668;52.012;8.724;2023-03-03T10:22:17;14.47;;;8.20;;
11222;SDS011;5668;52.012;8.724;2023-03-03T10:24:54;13.47;;;8.73;;
11222;SDS011;5668;52.012;8.724;2023-03-03T10:27:40;16.03;;;9.50;;
11222;SDS011;5668;52.012;8.724;2023-03-03T10:30:16;15.67;;;8.80;;
11222;SDS011;5668;52.012;8.724;2023-03-03T10:32:53;12.37;;;8.20;;
11222;SDS011;5668;52.012;8.724;2023-03-03T10:35:39;16.27;;;9.07;;
11222;SDS011;5668;52.012;8.724;2023-03-03T10:38:29;13.03;;;7.97;;
11222;SDS011;5668;52.012;8.724;2023-03-03T10:41:10;13.83;;;8.07;;
11222;SDS011;5668;52.012;8.724;2023-03-03T10:43:50;13.03;;;8.27;;
11222;SDS011;5668;52.012;8.724;2023-03-03T10:46:32;15.63;;;8.50;;
11222;SDS011;5668;52.012;8.724;2023-03-03T10:49:19;15.37;;;9.30;;
11222;SDS011;5668;52.012;8.724;2023-03-03T10:51:58;15.70;;;8.67;;
11222;SDS011;5668;52.012;8.724;2023-03-03T10:55:07;15.90;;;9.10;;
11222;SDS011;5668;52.012;8.724;2023-03-03T10:57:55;15.13;;;9.30;;
11222;SDS011;5668;52.012;8.724;2023-03-03T11:00:32;15.47;;;8.87;;
11222;SDS011;5668;52.012;8.724;2023-03-03T11:06:10;14.77;;;9.27;;
11222;SDS011;5668;52.012;8.724;2023-03-03T11:08:42;15.43;;;9.67;;
11222;SDS011;5668;52.012;8.724;2023-03-03T11:11:17;14.00;;;8.70;;
11222;SDS011;5668;52.012;8.724;2023-03-03T11:13:53;16.13;;;9.60;;
11222;SDS011;5668;52.012;8.724;2023-03-03T11:16:36;15.77;;;9.87;;
11222;SDS011;5668;52.012;8.724;2023-03-03T11:19:22;18.43;;;10.67;;
11222;SDS011;5668;52.012;8.724;2023-03-03T11:22:05;20.80;;;11.00;;
11222;SDS011;5668;52.012;8.724;2023-03-03T11:24:49;18.90;;;10.23;;
11222;SDS011;5668;52.012;8.724;2023-03-03T11:27:30;19.80;;;10.83;;
11222;SDS011;5668;52.012;8.724;2023-03-03T11:30:26;21.00;;;11.80;;
11222;SDS011;5668;52.012;8.724;2023-03-03T11:33:01;21.43;;;12.03;;
11222;SDS011;5668;52.012;8.724;2023-03-03T11:35:34;24.47;;;12.80;;
11222;SDS011;5668;52.012;8.724;2023-03-03T11:38:17;23.20;;;13.37;;
11222;SDS011;5668;52.012;8.724;2023-03-03T11:41:00;24.63;;;12.57;;
11222;SDS011;5668;52.012;8.724;2023-03-03T11:43:35;25.13;;;12.70;;
11222;SDS011;5668;52.012;8.724;2023-03-03T11:46:10;25.97;;;13.40;;
11222;SDS011;5668;52.012;8.724;2023-03-03T11:48:43;24.20;;;12.30;;
11222;SDS011;5668;52.012;8.724;2023-03-03T11:51:19;25.30;;;13.03;;
11222;SDS011;5668;52.012;8.724;2023-03-03T11:53:59;23.30;;;12.47;;
11222;SDS011;5668;52.012;8.724;2023-03-03T11:56:33;23.20;;;13.40;;
11222;SDS011;5668;52.012;8.724;2023-03-03T11:59:08;22.87;;;12.07;;
11222;SDS011;5668;52.012;8.724;2023-03-03T12:01:59;24.07;;;13.07;;
11222;SDS011;5668;52.012;8.724;2023-03-03T12:04:34;21.23;;;11.83;;
11222;SDS011;5668;52.012;8.724;2023-03-03T12:07:09;20.90;;;13.03;;
11222;SDS011;5668;52.012;8.724;2023-03-03T12:09:49;22.97;;;13.50;;
11222;SDS011;5668;52.012;8.724;2023-03-03T12:12:26;26.47;;;13.63;;
11222;SDS011;5668;52.012;8.724;2023-03-03T12:15:01;23.70;;;12.90;;
11222;SDS011;5668;52.012;8.724;2023-03-03T12:17:50;24.40;;;13.83;;
11222;SDS011;5668;52.012;8.724;2023-03-03T12:20:35;25.17;;;14.00;;
11222;SDS011;5668;52.012;8.724;2023-03-03T12:23:14;23.87;;;13.50;;
11222;SDS011;5668;52.012;8.724;2023-03-03T12:25:57;24.90;;;14.00;;
11222;SDS011;5668;52.012;8.724;2023-03-03T12:28:29;28.20;;;15.33;;
11222;SDS011;5668;52.012;8.724;2023-03-03T12:31:08;28.73;;;15.60;;
11222;SDS011;5668;52.012;8.724;2023-03-03T12:33:53;26.83;;;15.53;;
11222;SDS011;5668;52.012;8.724;2023-03-03T12:36:34;30.43;;;17.13;;
11222;SDS011;5668;52.012;8.724;2023-03-03T12:39:14;36.97;;;17.50;;
11222;SDS011;5668;52.012;8.724;2023-03-03T12:41:52;30.97;;;16.67;;
11222;SDS011;5668;52.012;8.724;2023-03-03T12:44:28;30.90;;;18.23;;
11222;SDS011;5668;52.012;8.724;2023-03-03T12:47:02;30.50;;;17.73;;
11222;SDS011;5668;52.012;8.724;2023-03-03T12:49:40;30.73;;;17.40;;
11222;SDS011;5668;52.012;8.724;2023-03-03T12:52:18;34.30;;;17.07;;
11222;SDS011;5668;52.012;8.724;2023-03-03T12:55:00;29.90;;;16.77;;
11222;SDS011;5668;52.012;8.724;2023-03-03T12:57:37;32.10;;;17.67;;
11222;SDS011;5668;52.012;8.724;2023-03-03T13:00:17;33.97;;;18.33;;
11222;SDS011;5668;52.012;8.724;2023-03-03T13:02:56;36.40;;;19.53;;
11222;SDS011;5668;52.012;8.724;2023-03-03T13:05:31;35.13;;;19.03;;
11222;SDS011;5668;52.012;8.724;2023-03-03T13:08:15;32.90;;;18.73;;
11222;SDS011;5668;52.012;8.724;2023-03-03T13:10:55;32.67;;;19.00;;
11222;SDS011;5668;52.012;8.724;2023-03-03T13:13:32;35.40;;;20.30;;
11222;SDS011;5668;52.012;8.724;2023-03-03T13:16:09;35.87;;;20.20;;
11222;SDS011;5668;52.012;8.724;2023-03-03T13:18:44;38.60;;;21.07;;
11222;SDS011;5668;52.012;8.724;2023-03-03T13:21:21;37.23;;;20.93;;
11222;SDS011;5668;52.012;8.724;2023-03-03T13:23:53;35.80;;;19.63;;
11222;SDS011;5668;52.012;8.724;2023-03-03T13:26:28;37.63;;;19.87;;
11222;SDS011;5668;52.012;8.724;2023-03-03T13:29:02;34.43;;;19.83;;
11222;SDS011;5668;52.012;8.724;2023-03-03T13:31:40;31.30;;;18.63;;
11222;SDS011;5668;52.012;8.724;2023-03-03T13:34:13;34.73;;;18.93;;
11222;SDS011;5668;52.012;8.724;2023-03-03T13:36:52;34.40;;;19.27;;
11222;SDS011;5668;52.012;8.724;2023-03-03T13:39:27;35.23;;;19.27;;
11222;SDS011;5668;52.012;8.724;2023-03-03T13:41:59;34.07;;;18.67;;
11222;SDS011;5668;52.012;8.724;2023-03-03T13:44:29;32.43;;;18.40;;
11222;SDS011;5668;52.012;8.724;2023-03-03T13:47:02;31.60;;;18.00;;
11222;SDS011;5668;52.012;8.724;2023-03-03T13:49:42;32.50;;;18.33;;
11222;SDS011;5668;52.012;8.724;2023-03-03T13:52:27;34.13;;;18.23;;
11222;SDS011;5668;52.012;8.724;2023-03-03T13:55:11;33.13;;;19.07;;
11222;SDS011;5668;52.012;8.724;2023-03-03T13:57:50;32.30;;;18.80;;
11222;SDS011;5668;52.012;8.724;2023-03-03T14:00:26;31.73;;;17.30;;
11222;SDS011;5668;52.012;8.724;2023-03-03T14:03:13;31.63;;;17.60;;
11222;SDS011;5668;52.012;8.724;2023-03-03T14:05:51;31.23;;;17.73;;
11222;SDS011;5668;52.012;8.724;2023-03-03T14:08:30;29.90;;;17.53;;
11222;SDS011;5668;52.012;8.724;2023-03-03T14:11:13;30.80;;;16.90;;
11222;SDS011;5668;52.012;8.724;2023-03-03T14:13:48;29.30;;;17.37;;
11222;SDS011;5668;52.012;8.724;2023-03-03T14:16:30;29.37;;;16.70;;
11222;SDS011;5668;52.012;8.724;2023-03-03T14:19:16;27.00;;;15.80;;
11222;SDS011;5668;52.012;8.724;2023-03-03T14:21:48;30.60;;;16.07;;
11222;SDS011;5668;52.012;8.724;2023-03-03T14:24:30;28.13;;;15.47;;
11222;SDS011;5668;52.012;8.724;2023-03-03T14:27:20;29.30;;;15.60;;
11222;SDS011;5668;52.012;8.724;2023-03-03T14:29:50;25.57;;;14.97;;
11222;SDS011;5668;52.012;8.724;2023-03-03T14:32:22;27.33;;;15.43;;
11222;SDS011;5668;52.012;8.724;2023-03-03T14:34:55;24.57;;;14.40;;
11222;SDS011;5668;52.012;8.724;2023-03-03T14:37:25;22.17;;;13.87;;
11222;SDS011;5668;52.012;8.724;2023-03-03T14:40:13;22.20;;;13.83;;
11222;SDS011;5668;52.012;8.724;2023-03-03T14:42:46;20.87;;;13.37;;
11222;SDS011;5668;52.012;8.724;2023-03-03T14:45:31;21.20;;;13.27;;
11222;SDS011;5668;52.012;8.724;2023-03-03T14:48:05;22.77;;;13.03;;
11222;SDS011;5668;52.012;8.724;2023-03-03T14:50:41;21.00;;;12.73;;
11222;SDS011;5668;52.012;8.724;2023-03-03T14:53:14;21.40;;;13.23;;
11222;SDS011;5668;52.012;8.724;2023-03-03T14:55:49;20.53;;;12.57;;
11222;SDS011;5668;52.012;8.724;2023-03-03T14:58:26;19.47;;;12.87;;
11222;SDS011;5668;52.012;8.724;2023-03-03T15:01:11;22.97;;;13.03;;
11222;SDS011;5668;52.012;8.724;2023-03-03T15:03:45;20.20;;;12.20;;
11222;SDS011;5668;52.012;8.724;2023-03-03T15:06:27;19.43;;;12.43;;
11222;SDS011;5668;52.012;8.724;2023-03-03T15:11:53;17.57;;;11.33;;
11222;SDS011;5668;52.012;8.724;2023-03-03T15:14:25;20.07;;;11.83;;
11222;SDS011;5668;52.012;8.724;2023-03-03T15:16:56;18.67;;;11.60;;
11222;SDS011;5668;52.012;8.724;2023-03-03T15:19:43;17.77;;;11.30;;
11222;SDS011;5668;52.012;8.724;2023-03-03T15:22:19;17.97;;;11.83;;
11222;SDS011;5668;52.012;8.724;2023-03-03T15:24:59;17.67;;;11.97;;
11222;SDS011;5668;52.012;8.724;2023-03-03T15:27:32;16.07;;;11.07;;